Terminal Aerodrome Forecast
Issued by NWS Sterling, VA

Current Version | Previous Version | Graphics & Text | Print | Product List | Glossary On
Versions: 1 2 3 4 5 6 7 8 9 10 11 12 13 14 15 16 17 18 19 20 21 22 23
008
FTUS41 KLWX 141456 AAA
TAFDCA
TAF AMD
KDCA 141456Z 1415/1512 VRB03KT P6SM OVC010
     FM141700 00000KT P6SM BKN020
     FM142200 00000KT P6SM BKN035
     FM142300 00000KT P6SM SCT035
     FM150600 00000KT 3SM BR SCT010
     FM150900 00000KT 1SM BR SCT010=

USA.gov is the U.S. government's official web portal to all federal, state and local government web resources and services.